createdAt,value
2023-05-13T00:00:26.870Z,3.75
2023-05-13T00:02:53.265Z,4.00
2023-05-13T00:05:19.825Z,3.60
2023-05-13T00:07:46.266Z,3.70
2023-05-13T00:10:12.907Z,3.47
2023-05-13T00:12:39.433Z,3.57
2023-05-13T00:15:06.406Z,3.78
2023-05-13T00:17:32.904Z,3.90
2023-05-13T00:19:59.462Z,3.78
2023-05-13T00:22:25.896Z,3.58
2023-05-13T00:24:52.362Z,3.70
2023-05-13T00:27:18.743Z,3.63
2023-05-13T00:29:45.216Z,3.70
2023-05-13T00:32:11.628Z,3.83
2023-05-13T00:34:38.021Z,3.70
2023-05-13T00:37:04.904Z,3.47
2023-05-13T00:39:31.314Z,4.03
2023-05-13T00:41:59.220Z,4.13
2023-05-13T00:44:27.740Z,4.22
2023-05-13T00:46:54.290Z,4.00
2023-05-13T00:49:20.686Z,4.10
2023-05-13T00:51:47.119Z,4.05
2023-05-13T00:54:13.518Z,4.30
2023-05-13T00:56:40.020Z,4.10
2023-05-13T00:59:06.633Z,3.88
2023-05-13T01:02:00.739Z,3.80
2023-05-13T01:05:06.101Z,3.85
2023-05-13T01:07:46.638Z,4.10
2023-05-13T01:10:23.889Z,3.83
2023-05-13T01:15:23.981Z,4.05
2023-05-13T01:18:07.712Z,4.28
2023-05-13T01:20:35.221Z,4.07
2023-05-13T01:25:30.902Z,3.80
2023-05-13T01:27:57.428Z,4.10
2023-05-13T01:30:24.211Z,3.90
2023-05-13T01:32:51.695Z,4.03
2023-05-13T01:37:45.253Z,4.05
2023-05-13T01:40:24.217Z,3.40
2023-05-13T01:42:57.288Z,3.70
2023-05-13T01:45:23.733Z,3.65
2023-05-13T01:47:50.195Z,3.95
2023-05-13T01:50:16.834Z,3.67
2023-05-13T01:52:43.256Z,3.83
2023-05-13T01:55:09.722Z,4.10
2023-05-13T01:57:36.136Z,3.83
2023-05-13T02:00:04.161Z,4.13
2023-05-13T02:02:30.715Z,4.10
2023-05-13T02:04:57.159Z,3.72
2023-05-13T02:07:23.649Z,3.88
2023-05-13T02:09:50.140Z,3.88
2023-05-13T02:12:16.645Z,3.90
2023-05-13T02:14:43.057Z,3.70
2023-05-13T02:17:09.492Z,4.72
2023-05-13T02:19:35.962Z,4.30
2023-05-13T02:22:02.349Z,3.97
2023-05-13T02:24:30.758Z,4.85
2023-05-13T02:26:57.179Z,3.60
2023-05-13T02:29:23.642Z,3.58
2023-05-13T02:31:50.465Z,4.07
2023-05-13T02:34:16.919Z,4.10
2023-05-13T02:36:43.370Z,4.07
2023-05-13T02:39:09.844Z,4.32
2023-05-13T02:41:37.307Z,3.83
2023-05-13T02:44:03.858Z,4.40
2023-05-13T02:46:30.572Z,4.30
2023-05-13T02:48:57.151Z,4.20
2023-05-13T02:51:23.584Z,4.10
2023-05-13T02:53:49.963Z,4.00
2023-05-13T02:56:16.931Z,4.40
2023-05-13T02:58:43.661Z,3.95
2023-05-13T03:01:10.073Z,3.95
2023-05-13T03:03:36.961Z,3.90
2023-05-13T03:06:04.298Z,4.35
2023-05-13T03:08:30.684Z,4.28
2023-05-13T03:10:58.688Z,4.15
2023-05-13T03:13:25.282Z,4.32
2023-05-13T03:15:51.754Z,5.00
2023-05-13T03:18:18.196Z,4.47
2023-05-13T03:20:44.700Z,4.20
2023-05-13T03:23:11.121Z,4.43
2023-05-13T03:25:37.578Z,4.40
2023-05-13T03:28:04.152Z,4.55
2023-05-13T03:30:30.658Z,4.30
2023-05-13T03:32:57.940Z,4.38
2023-05-13T03:35:24.396Z,4.45
2023-05-13T03:37:50.922Z,4.50
2023-05-13T03:40:17.424Z,4.47
2023-05-13T03:42:44.019Z,4.25
2023-05-13T03:45:11.475Z,4.40
2023-05-13T03:47:39.437Z,4.15
2023-05-13T03:50:06.606Z,4.13
2023-05-13T03:52:33.049Z,4.45
2023-05-13T03:54:59.430Z,4.30
2023-05-13T03:57:25.955Z,3.92
2023-05-13T03:59:52.336Z,4.25
2023-05-13T04:02:18.961Z,4.05
2023-05-13T04:04:45.696Z,3.95
2023-05-13T04:07:12.400Z,4.10
2023-05-13T04:09:38.924Z,4.30
2023-05-13T04:12:05.848Z,3.95
2023-05-13T04:14:32.241Z,4.15
2023-05-13T04:16:58.717Z,3.90
2023-05-13T04:19:25.107Z,3.65
2023-05-13T04:21:51.490Z,3.70
2023-05-13T04:24:17.927Z,4.30
2023-05-13T04:26:44.408Z,3.92
2023-05-13T04:29:10.839Z,3.92
2023-05-13T04:31:37.492Z,3.88
2023-05-13T04:34:03.947Z,3.60
2023-05-13T04:36:31.271Z,3.97
2023-05-13T04:38:57.765Z,3.92
2023-05-13T04:41:24.313Z,4.10
2023-05-13T04:43:50.808Z,4.32
2023-05-13T04:46:17.225Z,4.13
2023-05-13T04:48:48.128Z,3.80
2023-05-13T04:51:16.072Z,4.35
2023-05-13T04:53:43.036Z,21.20
2023-05-13T04:56:09.596Z,11.73
2023-05-13T04:58:36.097Z,5.18
2023-05-13T05:01:02.623Z,7.35
2023-05-13T05:03:29.228Z,5.07
2023-05-13T05:05:55.732Z,4.07
2023-05-13T05:08:22.120Z,4.00
2023-05-13T05:10:48.533Z,3.90
2023-05-13T05:13:14.935Z,3.50
2023-05-13T05:15:41.815Z,4.05
2023-05-13T05:18:08.513Z,4.90
2023-05-13T05:20:35.145Z,6.93
2023-05-13T05:23:01.790Z,7.75
2023-05-13T05:25:28.479Z,4.90
2023-05-13T05:27:54.950Z,4.53
2023-05-13T05:30:21.857Z,7.43
2023-05-13T05:32:48.568Z,3.88
2023-05-13T05:35:17.015Z,3.55
2023-05-13T05:37:43.403Z,3.40
2023-05-13T05:40:10.355Z,3.10
2023-05-13T05:42:36.806Z,3.00
2023-05-13T05:45:03.535Z,3.23
2023-05-13T05:47:29.957Z,2.92
2023-05-13T05:49:56.433Z,3.13
2023-05-13T05:52:22.905Z,3.77
2023-05-13T05:54:49.292Z,3.33
2023-05-13T05:57:15.920Z,2.53
2023-05-13T05:59:42.342Z,2.67
2023-05-13T06:02:08.807Z,2.55
2023-05-13T06:04:35.488Z,4.00
2023-05-13T06:07:02.053Z,2.67
2023-05-13T06:09:28.535Z,2.73
2023-05-13T06:11:54.976Z,2.30
2023-05-13T06:14:21.521Z,3.53
2023-05-13T06:16:47.870Z,4.70
2023-05-13T06:19:14.359Z,2.17
2023-05-13T06:21:43.048Z,2.53
2023-05-13T06:24:09.754Z,9.50
2023-05-13T06:26:36.703Z,2.83
2023-05-13T06:29:03.102Z,2.95
2023-05-13T06:31:29.598Z,3.10
2023-05-13T06:33:56.084Z,2.20
2023-05-13T06:36:22.606Z,2.00
2023-05-13T06:38:49.024Z,4.07
2023-05-13T06:41:15.686Z,4.20
2023-05-13T06:43:42.261Z,3.58
2023-05-13T06:46:08.658Z,2.15
2023-05-13T06:48:35.107Z,2.08
2023-05-13T06:51:01.495Z,2.40
2023-05-13T06:53:28.045Z,2.13
2023-05-13T06:55:54.524Z,2.00
2023-05-13T06:58:21.116Z,2.20
2023-05-13T07:00:47.570Z,2.22
2023-05-13T07:03:14.140Z,2.10
2023-05-13T07:05:40.659Z,2.17
2023-05-13T07:08:08.428Z,1.92
2023-05-13T07:10:35.984Z,2.10
2023-05-13T07:13:02.606Z,2.38
2023-05-13T07:15:29.138Z,2.08
2023-05-13T07:17:55.680Z,2.45
2023-05-13T07:20:23.296Z,2.15
2023-05-13T07:22:50.704Z,2.05
2023-05-13T07:27:44.660Z,2.03
2023-05-13T07:30:12.701Z,2.15
2023-05-13T07:32:39.665Z,2.00
2023-05-13T07:35:06.965Z,2.20
2023-05-13T07:39:59.669Z,2.20
2023-05-13T07:42:27.245Z,2.10
2023-05-13T07:44:53.820Z,2.13
2023-05-13T07:47:20.484Z,2.00
2023-05-13T07:49:47.031Z,2.03
2023-05-13T07:52:13.607Z,1.90
2023-05-13T07:54:40.034Z,2.05
2023-05-13T07:57:06.591Z,2.10
2023-05-13T07:59:34.728Z,1.95
2023-05-13T08:02:02.608Z,1.80
2023-05-13T08:04:31.987Z,2.08
2023-05-13T08:06:59.927Z,2.00
2023-05-13T08:09:26.473Z,2.22
2023-05-13T08:11:52.907Z,2.00
2023-05-13T08:14:19.548Z,2.20
2023-05-13T08:16:46.242Z,1.88
2023-05-13T08:19:16.265Z,1.95
2023-05-13T08:21:43.044Z,1.75
2023-05-13T08:24:09.538Z,2.10
2023-05-13T08:26:37.213Z,2.20
2023-05-13T08:29:03.604Z,2.08
2023-05-13T08:31:30.686Z,2.00
2023-05-13T08:33:57.089Z,2.17
2023-05-13T08:36:25.829Z,2.40
2023-05-13T08:38:52.177Z,2.10
2023-05-13T08:41:20.480Z,2.20
2023-05-13T08:43:49.711Z,2.28
2023-05-13T08:46:18.178Z,2.53
2023-05-13T08:48:45.780Z,2.42
2023-05-13T08:51:12.381Z,2.30
2023-05-13T08:53:39.657Z,2.30
2023-05-13T08:58:34.074Z,2.60
2023-05-13T09:01:01.244Z,2.37
2023-05-13T09:05:54.561Z,2.45
2023-05-13T09:08:21.116Z,2.80
2023-05-13T09:10:48.263Z,2.65
2023-05-13T09:13:18.056Z,3.75
2023-05-13T09:15:45.051Z,3.00
2023-05-13T09:18:12.832Z,3.65
2023-05-13T09:20:39.374Z,3.22
2023-05-13T09:23:10.602Z,2.97
2023-05-13T09:25:38.289Z,3.00
2023-05-13T09:28:06.397Z,3.20
2023-05-13T09:30:42.629Z,3.10
2023-05-13T09:33:13.599Z,3.13
2023-05-13T09:35:48.697Z,2.78
2023-05-13T09:38:22.066Z,2.80
2023-05-13T09:40:56.591Z,2.60
2023-05-13T09:43:32.099Z,3.00
2023-05-13T09:46:02.959Z,3.03
2023-05-13T09:48:32.338Z,2.88
2023-05-13T09:50:59.389Z,2.70
2023-05-13T09:53:26.807Z,2.90
2023-05-13T09:55:55.834Z,2.90
2023-05-13T09:58:24.428Z,2.70
2023-05-13T10:00:51.914Z,2.67
2023-05-13T10:03:18.437Z,2.80
2023-05-13T10:05:45.232Z,2.92
2023-05-13T10:08:13.842Z,2.72
2023-05-13T10:10:41.376Z,2.90
2023-05-13T10:13:13.617Z,2.42
2023-05-13T10:15:50.457Z,2.55
2023-05-13T10:18:17.911Z,2.60
2023-05-13T10:20:45.323Z,2.80
2023-05-13T10:23:11.966Z,2.92
2023-05-13T10:25:38.763Z,3.10
2023-05-13T10:28:05.862Z,2.88
2023-05-13T10:30:33.645Z,2.90
2023-05-13T10:33:01.525Z,2.80
2023-05-13T10:35:38.581Z,2.92
2023-05-13T10:38:22.011Z,3.10
2023-05-13T10:41:09.149Z,3.40
2023-05-13T10:43:36.175Z,2.95
2023-05-13T10:46:06.196Z,2.67
2023-05-13T10:48:43.543Z,2.65
2023-05-13T10:51:14.361Z,2.60
2023-05-13T10:53:47.629Z,2.78
2023-05-13T10:56:14.885Z,2.63
2023-05-13T10:58:41.338Z,2.53
2023-05-13T11:01:18.977Z,2.60
2023-05-13T11:03:54.099Z,2.60
2023-05-13T11:06:23.597Z,2.30
2023-05-13T11:08:53.598Z,2.30
2023-05-13T11:11:22.361Z,1.45
2023-05-13T11:14:13.538Z,1.45
2023-05-13T11:17:00.211Z,1.40
2023-05-13T11:19:30.631Z,1.45
2023-05-13T11:22:14.828Z,1.60
2023-05-13T11:24:41.821Z,1.92
2023-05-13T11:27:21.280Z,1.90
2023-05-13T11:29:50.648Z,1.98
2023-05-13T11:32:58.480Z,2.00
2023-05-13T11:35:32.794Z,1.90
2023-05-13T11:38:01.309Z,1.50
2023-05-13T11:40:29.260Z,2.08
2023-05-13T11:42:55.838Z,1.60
2023-05-13T11:45:25.014Z,1.88
2023-05-13T11:47:53.381Z,1.98
2023-05-13T11:50:27.843Z,1.95
2023-05-13T11:52:57.178Z,2.00
2023-05-13T11:55:31.626Z,2.05
2023-05-13T11:57:59.161Z,2.40
2023-05-13T12:00:30.354Z,2.10
2023-05-13T12:02:57.858Z,1.95
2023-05-13T12:05:25.368Z,2.17
2023-05-13T12:07:55.966Z,2.05
2023-05-13T12:10:23.573Z,2.15
2023-05-13T12:12:50.576Z,2.22
2023-05-13T12:15:19.025Z,2.33
2023-05-13T12:17:46.338Z,2.50
2023-05-13T12:20:13.991Z,1.88
2023-05-13T12:22:46.792Z,1.88
2023-05-13T12:25:34.949Z,1.70
2023-05-13T12:28:21.610Z,1.98
2023-05-13T12:31:06.162Z,1.88
2023-05-13T12:33:43.616Z,1.95
2023-05-13T12:36:20.441Z,1.70
2023-05-13T12:39:01.242Z,1.80
2023-05-13T12:41:40.820Z,1.83
2023-05-13T12:44:14.415Z,1.73
2023-05-13T12:46:54.417Z,1.63
2023-05-13T12:49:21.078Z,1.52
2023-05-13T12:51:47.540Z,2.10
2023-05-13T12:54:13.936Z,2.23
2023-05-13T12:56:40.471Z,2.00
2023-05-13T12:59:07.965Z,2.17
2023-05-13T13:01:35.297Z,1.98
2023-05-13T13:06:28.504Z,1.70
2023-05-13T13:08:54.975Z,2.20
2023-05-13T13:11:21.543Z,1.80
2023-05-13T13:13:48.533Z,2.00
2023-05-13T13:16:15.150Z,1.80
2023-05-13T13:18:42.791Z,2.15
2023-05-13T13:21:10.306Z,2.13
2023-05-13T13:23:36.740Z,2.20
2023-05-13T13:26:03.355Z,1.92
2023-05-13T13:28:31.612Z,1.90
2023-05-13T13:30:59.483Z,1.98
2023-05-13T13:33:25.854Z,2.10
2023-05-13T13:35:52.441Z,2.10
2023-05-13T13:38:18.840Z,2.30
2023-05-13T13:40:45.197Z,2.25
2023-05-13T13:43:11.608Z,2.28
2023-05-13T13:45:38.009Z,2.00
2023-05-13T13:48:04.779Z,1.93
2023-05-13T13:50:31.234Z,2.08
2023-05-13T13:52:57.628Z,2.60
2023-05-13T13:55:24.300Z,2.20
2023-05-13T13:57:51.949Z,2.85
2023-05-13T14:00:19.100Z,3.78
2023-05-13T14:02:45.762Z,2.25
2023-05-13T14:05:13.046Z,2.37
2023-05-13T14:07:40.179Z,2.10
2023-05-13T14:10:07.310Z,2.40
2023-05-13T14:12:35.676Z,2.50
2023-05-13T14:15:02.092Z,2.53
2023-05-13T14:17:28.712Z,2.58
2023-05-13T14:19:55.477Z,2.78
2023-05-13T14:22:23.516Z,3.35
2023-05-13T14:24:51.359Z,3.08
2023-05-13T14:27:18.282Z,3.25
2023-05-13T14:29:46.464Z,3.17
2023-05-13T14:32:13.796Z,3.30
2023-05-13T14:34:40.231Z,3.30
2023-05-13T14:37:07.159Z,3.28
2023-05-13T14:39:33.546Z,3.10
2023-05-13T14:42:00.556Z,2.60
2023-05-13T14:44:26.910Z,2.88
2023-05-13T14:46:53.472Z,2.47
2023-05-13T14:49:19.883Z,2.50
2023-05-13T14:51:46.283Z,2.80
2023-05-13T14:54:12.685Z,2.40
2023-05-13T14:56:39.208Z,2.45
2023-05-13T14:59:05.570Z,2.73
2023-05-13T15:01:32.471Z,3.20
2023-05-13T15:03:59.715Z,2.28
2023-05-13T15:06:26.828Z,2.30
2023-05-13T15:08:53.657Z,2.40
2023-05-13T15:11:20.058Z,2.22
2023-05-13T15:13:46.522Z,2.10
2023-05-13T15:16:13.016Z,2.53
2023-05-13T15:18:39.474Z,2.37
2023-05-13T15:21:05.919Z,2.40
2023-05-13T15:23:32.610Z,2.28
2023-05-13T15:25:58.988Z,2.30
2023-05-13T15:28:25.399Z,2.00
2023-05-13T15:30:51.822Z,2.30
2023-05-13T15:33:18.272Z,3.25
2023-05-13T15:35:44.771Z,2.30
2023-05-13T15:38:11.372Z,2.72
2023-05-13T15:40:38.381Z,2.38
2023-05-13T15:43:04.972Z,1.67
2023-05-13T15:45:31.416Z,1.40
2023-05-13T15:47:57.867Z,1.40
2023-05-13T15:50:25.972Z,1.25
2023-05-13T15:52:54.801Z,1.30
2023-05-13T15:55:21.908Z,1.25
2023-05-13T15:57:50.131Z,1.50
2023-05-13T16:00:17.589Z,1.20
2023-05-13T16:02:44.279Z,1.40
2023-05-13T16:05:15.610Z,1.20
2023-05-13T16:07:42.437Z,1.10
2023-05-13T16:10:09.126Z,1.20
2023-05-13T16:12:36.050Z,1.08
2023-05-13T16:15:02.638Z,1.30
2023-05-13T16:17:29.317Z,1.17
2023-05-13T16:19:55.764Z,0.95
2023-05-13T16:22:30.205Z,1.00
2023-05-13T16:25:00.708Z,1.10
2023-05-13T16:27:28.549Z,1.40
2023-05-13T16:29:56.645Z,1.70
2023-05-13T16:32:23.431Z,1.70
2023-05-13T16:34:49.909Z,2.47
2023-05-13T16:37:16.633Z,2.20
2023-05-13T16:39:43.566Z,1.77
2023-05-13T16:42:10.556Z,1.77
2023-05-13T16:44:37.189Z,2.00
2023-05-13T16:47:03.796Z,2.10
2023-05-13T16:49:30.186Z,4.10
2023-05-13T16:51:56.565Z,1.90
2023-05-13T16:54:23.240Z,2.17
2023-05-13T16:56:50.449Z,2.10
2023-05-13T16:59:24.479Z,2.13
2023-05-13T17:01:52.309Z,2.33
2023-05-13T17:04:19.814Z,2.45
2023-05-13T17:09:12.698Z,2.73
2023-05-13T17:11:39.157Z,2.73
2023-05-13T17:14:06.139Z,3.15
2023-05-13T17:16:33.055Z,3.13
2023-05-13T17:18:59.692Z,2.90
2023-05-13T17:21:26.607Z,2.90
2023-05-13T17:23:53.337Z,3.60
2023-05-13T17:26:21.992Z,3.05
2023-05-13T17:28:49.546Z,3.63
2023-05-13T17:31:16.197Z,3.50
2023-05-13T17:33:42.662Z,3.70
2023-05-13T17:36:09.153Z,3.42
2023-05-13T17:38:35.941Z,3.67
2023-05-13T17:41:02.505Z,3.17
2023-05-13T17:43:28.934Z,3.33
2023-05-13T17:45:55.373Z,3.25
2023-05-13T17:48:22.009Z,3.58
2023-05-13T17:50:48.520Z,3.87
2023-05-13T17:53:14.926Z,3.10
2023-05-13T17:55:41.376Z,3.58
2023-05-13T17:58:07.756Z,2.85
2023-05-13T18:00:34.189Z,3.30
2023-05-13T18:03:00.576Z,2.83
2023-05-13T18:05:27.004Z,3.03
2023-05-13T18:07:53.389Z,4.22
2023-05-13T18:10:19.911Z,3.40
2023-05-13T18:12:46.440Z,7.50
2023-05-13T18:15:13.558Z,3.78
2023-05-13T18:17:40.041Z,3.30
2023-05-13T18:20:07.028Z,16.55
2023-05-13T18:22:34.765Z,46.15
2023-05-13T18:25:01.217Z,30.13
2023-05-13T18:27:27.685Z,34.67
2023-05-13T18:29:54.101Z,37.55
2023-05-13T18:32:20.791Z,13.98
2023-05-13T18:34:47.307Z,7.55
2023-05-13T18:37:15.046Z,8.60
2023-05-13T18:39:42.036Z,7.10
2023-05-13T18:42:08.434Z,5.75
2023-05-13T18:44:35.221Z,4.45
2023-05-13T18:47:01.591Z,4.80
2023-05-13T18:49:32.279Z,6.78
2023-05-13T18:51:58.895Z,5.43
2023-05-13T18:54:29.226Z,4.77
2023-05-13T18:56:56.264Z,4.75
2023-05-13T18:59:22.983Z,7.07
2023-05-13T19:01:49.756Z,10.30
2023-05-13T19:04:16.534Z,6.95
2023-05-13T19:06:43.068Z,6.75
2023-05-13T19:09:09.482Z,5.85
2023-05-13T19:11:35.896Z,6.68
2023-05-13T19:14:02.587Z,6.03
2023-05-13T19:16:29.041Z,5.55
2023-05-13T19:18:55.544Z,5.50
2023-05-13T19:21:23.427Z,5.57
2023-05-13T19:23:50.207Z,5.78
2023-05-13T19:26:16.746Z,6.10
2023-05-13T19:28:46.531Z,6.03
2023-05-13T19:31:12.988Z,6.05
2023-05-13T19:33:39.582Z,6.13
2023-05-13T19:36:06.581Z,6.53
2023-05-13T19:38:33.990Z,6.25
2023-05-13T19:43:26.997Z,5.47
2023-05-13T19:45:55.482Z,5.47
2023-05-13T19:48:21.991Z,5.25
2023-05-13T19:50:48.481Z,7.63
2023-05-13T19:53:15.227Z,6.57
2023-05-13T19:55:41.682Z,9.75
2023-05-13T19:58:08.486Z,5.72
2023-05-13T20:00:35.131Z,5.90
2023-05-13T20:03:01.637Z,5.50
2023-05-13T20:05:28.218Z,6.30
2023-05-13T20:07:54.581Z,5.70
2023-05-13T20:10:21.210Z,5.90
2023-05-13T20:12:47.677Z,5.40
2023-05-13T20:15:14.727Z,5.70
2023-05-13T20:17:42.297Z,5.55
2023-05-13T20:20:09.057Z,5.72
2023-05-13T20:22:35.513Z,5.88
2023-05-13T20:25:01.979Z,5.72
2023-05-13T20:27:28.409Z,5.60
2023-05-13T20:29:55.856Z,5.40
2023-05-13T20:34:54.534Z,5.15
2023-05-13T20:37:24.086Z,5.78
2023-05-13T20:39:50.976Z,4.97
2023-05-13T20:42:17.744Z,5.13
2023-05-13T20:44:45.855Z,4.85
2023-05-13T20:47:13.582Z,5.13
2023-05-13T20:49:43.529Z,5.22
2023-05-13T20:52:10.770Z,6.20
2023-05-13T20:54:37.477Z,5.63
2023-05-13T20:57:04.122Z,5.97
2023-05-13T20:59:30.964Z,6.27
2023-05-13T21:01:57.684Z,6.78
2023-05-13T21:04:25.510Z,6.40
2023-05-13T21:06:52.538Z,6.80
2023-05-13T21:09:18.923Z,7.32
2023-05-13T21:11:45.804Z,7.00
2023-05-13T21:14:12.207Z,7.22
2023-05-13T21:16:38.602Z,7.80
2023-05-13T21:19:05.146Z,7.20
2023-05-13T21:21:32.136Z,6.90
2023-05-13T21:23:58.628Z,17.92
2023-05-13T21:26:25.710Z,6.78
2023-05-13T21:28:52.125Z,6.65
2023-05-13T21:31:18.643Z,6.43
2023-05-13T21:33:45.123Z,6.23
2023-05-13T21:36:11.461Z,7.30
2023-05-13T21:38:37.919Z,7.13
2023-05-13T21:41:04.421Z,7.00
2023-05-13T21:43:30.804Z,6.85
2023-05-13T21:45:57.144Z,6.60
2023-05-13T21:48:23.682Z,6.60
2023-05-13T21:50:50.446Z,6.07
2023-05-13T21:53:17.036Z,5.22
2023-05-13T21:55:44.170Z,5.28
2023-05-13T21:58:10.601Z,4.40
2023-05-13T22:00:37.097Z,4.72
2023-05-13T22:03:03.949Z,4.77
2023-05-13T22:05:30.579Z,4.70
2023-05-13T22:07:57.206Z,4.35
2023-05-13T22:10:23.835Z,4.93
2023-05-13T22:12:50.405Z,4.97
2023-05-13T22:15:16.888Z,4.82
2023-05-13T22:17:43.477Z,4.97
2023-05-13T22:20:10.469Z,5.13
2023-05-13T22:22:36.941Z,5.25
2023-05-13T22:25:03.748Z,5.20
2023-05-13T22:27:30.270Z,4.82
2023-05-13T22:29:56.856Z,5.40
2023-05-13T22:32:23.609Z,5.17
2023-05-13T22:34:50.032Z,5.10
2023-05-13T22:37:16.567Z,5.93
2023-05-13T22:39:42.999Z,5.45
2023-05-13T22:42:09.429Z,5.68
2023-05-13T22:44:35.948Z,5.40
2023-05-13T22:47:02.428Z,5.53
2023-05-13T22:49:28.812Z,5.50
2023-05-13T22:51:55.171Z,4.70
2023-05-13T22:54:21.541Z,5.35
2023-05-13T22:56:47.892Z,5.20
2023-05-13T22:59:14.289Z,5.30
2023-05-13T23:01:40.814Z,5.13
2023-05-13T23:04:07.383Z,5.07
2023-05-13T23:06:33.793Z,5.07
2023-05-13T23:09:00.665Z,5.70
2023-05-13T23:11:27.033Z,5.38
2023-05-13T23:13:53.424Z,5.53
2023-05-13T23:16:20.007Z,5.13
2023-05-13T23:18:46.478Z,5.27
2023-05-13T23:21:12.893Z,5.00
2023-05-13T23:23:39.288Z,5.10
2023-05-13T23:26:05.826Z,6.03
2023-05-13T23:28:33.227Z,5.33
2023-05-13T23:30:59.570Z,5.75
2023-05-13T23:33:25.987Z,5.65
2023-05-13T23:35:53.708Z,5.95
2023-05-13T23:38:20.449Z,5.50
2023-05-13T23:40:46.876Z,5.95
2023-05-13T23:43:13.265Z,5.40
2023-05-13T23:45:39.755Z,5.30
2023-05-13T23:48:06.386Z,6.13
2023-05-13T23:50:32.873Z,5.17
2023-05-13T23:52:59.255Z,5.47
2023-05-13T23:55:25.753Z,5.60
2023-05-13T23:57:52.141Z,5.70
